createdAt,value
2024-03-14T00:00:00.187Z,250
2024-03-14T00:05:00.134Z,262.5
2024-03-14T00:10:00.125Z,267.5
2024-03-14T00:15:00.173Z,260
2024-03-14T00:20:00.140Z,272.5
2024-03-14T00:25:00.146Z,265
2024-03-14T00:30:00.133Z,265
2024-03-14T00:35:00.118Z,262.5
2024-03-14T00:40:00.143Z,270
2024-03-14T00:45:00.159Z,260
2024-03-14T00:50:00.127Z,275
2024-03-14T00:55:00.133Z,267.5
2024-03-14T01:00:00.323Z,267.5
2024-03-14T01:05:00.190Z,265
2024-03-14T01:10:00.106Z,265
2024-03-14T01:15:00.217Z,270
2024-03-14T01:20:00.146Z,267.5
2024-03-14T01:25:00.115Z,265
2024-03-14T01:30:00.139Z,260
2024-03-14T01:35:00.116Z,262.5
2024-03-14T01:40:00.205Z,257.5
2024-03-14T01:45:00.161Z,262.5
2024-03-14T01:50:00.179Z,265
2024-03-14T01:55:00.129Z,265
2024-03-14T02:00:00.317Z,267.5
2024-03-14T02:05:00.120Z,267.5
2024-03-14T02:10:00.121Z,257.5
2024-03-14T02:15:00.210Z,260
2024-03-14T02:20:00.182Z,255
2024-03-14T02:25:00.163Z,265
2024-03-14T02:30:00.186Z,305
2024-03-14T02:35:00.148Z,355
2024-03-14T02:40:00.143Z,72.5
2024-03-14T02:45:00.152Z,110
2024-03-14T02:50:00.128Z,135
2024-03-14T02:55:00.123Z,155
2024-03-14T03:00:00.212Z,190
2024-03-14T03:05:00.163Z,190
2024-03-14T03:10:00.116Z,185
2024-03-14T03:15:00.141Z,177.5
2024-03-14T03:20:00.139Z,190
2024-03-14T03:25:00.120Z,197.5
2024-03-14T03:30:00.223Z,212.5
2024-03-14T03:35:00.165Z,205
2024-03-14T03:40:00.124Z,205
2024-03-14T03:45:00.240Z,202.5
2024-03-14T03:50:00.167Z,225
2024-03-14T03:55:00.141Z,292.5
2024-03-14T04:00:00.149Z,247.5
2024-03-14T04:05:00.126Z,262.5
2024-03-14T04:10:00.167Z,97.5
2024-03-14T04:15:00.267Z,140
2024-03-14T04:20:00.149Z,177.5
2024-03-14T04:25:00.108Z,160
2024-03-14T04:30:00.141Z,175
2024-03-14T04:35:00.142Z,182.5
2024-03-14T04:40:00.140Z,177.5
2024-03-14T04:45:00.165Z,175
2024-03-14T04:50:00.134Z,130
2024-03-14T04:55:00.140Z,132.5
2024-03-14T05:00:00.230Z,160
2024-03-14T05:05:00.150Z,172.5
2024-03-14T05:10:00.157Z,175
2024-03-14T05:15:00.154Z,170
2024-03-14T05:20:00.169Z,132.5
2024-03-14T05:25:00.137Z,135
2024-03-14T05:30:00.139Z,305
2024-03-14T05:35:01.539Z,305
2024-03-14T05:40:00.108Z,305
2024-03-14T05:45:00.180Z,305
2024-03-14T05:50:00.995Z,135
2024-03-14T05:55:00.143Z,107.5
2024-03-14T06:00:00.135Z,217.5
2024-03-14T06:05:00.145Z,242.5
2024-03-14T06:10:00.147Z,227.5
2024-03-14T06:15:00.168Z,230
2024-03-14T06:20:00.192Z,247.5
2024-03-14T06:25:00.163Z,175
2024-03-14T06:30:00.165Z,175
2024-03-14T06:35:00.153Z,200
2024-03-14T06:40:00.172Z,165
2024-03-14T06:45:00.125Z,150
2024-03-14T06:50:00.566Z,167.5
2024-03-14T06:55:00.189Z,175
2024-03-14T07:00:00.223Z,157.5
2024-03-14T07:05:00.156Z,170
2024-03-14T07:10:00.121Z,180
2024-03-14T07:15:00.185Z,190
2024-03-14T07:20:00.175Z,200
2024-03-14T07:25:00.154Z,195
2024-03-14T07:30:00.138Z,192.5
2024-03-14T07:35:00.139Z,187.5
2024-03-14T07:40:00.140Z,195
2024-03-14T07:45:00.133Z,190
2024-03-14T07:50:00.156Z,180
2024-03-14T07:55:00.144Z,170
2024-03-14T08:00:00.213Z,172.5
2024-03-14T08:05:00.150Z,172.5
2024-03-14T08:10:00.134Z,182.5
2024-03-14T08:15:00.234Z,192.5
2024-03-14T08:20:00.142Z,205
2024-03-14T08:25:00.156Z,197.5
2024-03-14T08:30:00.205Z,217.5
2024-03-14T08:35:00.157Z,235
2024-03-14T08:40:00.171Z,237.5
2024-03-14T08:45:00.144Z,237.5
2024-03-14T08:50:00.144Z,227.5
2024-03-14T08:55:00.115Z,220
2024-03-14T09:00:00.162Z,220
2024-03-14T09:05:00.148Z,217.5
2024-03-14T09:10:00.107Z,200
2024-03-14T09:15:00.161Z,205
2024-03-14T09:20:00.164Z,210
2024-03-14T09:25:00.160Z,195
2024-03-14T09:30:00.143Z,202.5
2024-03-14T09:35:00.180Z,157.5
2024-03-14T09:40:00.120Z,187.5
2024-03-14T09:45:00.165Z,202.5
2024-03-14T09:50:00.147Z,200
2024-03-14T09:55:00.096Z,172.5
2024-03-14T10:00:00.173Z,200
2024-03-14T10:05:00.197Z,202.5
2024-03-14T10:10:00.405Z,177.5
2024-03-14T10:15:00.249Z,195
2024-03-14T10:20:00.168Z,185
2024-03-14T10:25:00.149Z,192.5
2024-03-14T10:30:00.107Z,202.5
2024-03-14T10:35:00.153Z,197.5
2024-03-14T10:40:00.139Z,202.5
2024-03-14T10:45:02.099Z,205
2024-03-14T10:50:00.168Z,200
2024-03-14T10:55:00.140Z,185
2024-03-14T11:00:00.160Z,190
2024-03-14T11:05:00.130Z,195
2024-03-14T11:10:00.103Z,200
2024-03-14T11:15:00.199Z,215
2024-03-14T11:20:00.145Z,205
2024-03-14T11:25:00.160Z,210
2024-03-14T11:30:00.161Z,202.5
2024-03-14T11:35:02.021Z,200
2024-03-14T11:40:00.157Z,202.5
2024-03-14T11:45:00.182Z,200
2024-03-14T11:50:00.157Z,170
2024-03-14T11:55:00.153Z,200
2024-03-14T12:00:06.773Z,207.5
2024-03-14T12:05:00.553Z,187.5
2024-03-14T12:10:00.122Z,200
2024-03-14T12:15:00.270Z,225
2024-03-14T12:20:00.150Z,200
2024-03-14T12:25:00.162Z,200
2024-03-14T12:30:00.164Z,220
2024-03-14T12:35:00.100Z,197.5
2024-03-14T12:40:00.142Z,215
2024-03-14T12:45:00.185Z,217.5
2024-03-14T12:50:00.174Z,217.5
2024-03-14T12:55:00.150Z,175
2024-03-14T13:00:00.201Z,215
2024-03-14T13:05:00.125Z,192.5
2024-03-14T13:10:00.127Z,187.5
2024-03-14T13:15:00.170Z,187.5
2024-03-14T13:20:00.147Z,205
2024-03-14T13:25:00.146Z,212.5
2024-03-14T13:30:00.133Z,207.5
2024-03-14T13:35:00.128Z,202.5
2024-03-14T13:40:00.161Z,190
2024-03-14T13:45:00.159Z,207.5
2024-03-14T13:50:00.142Z,190
2024-03-14T13:55:00.138Z,145
2024-03-14T14:00:00.149Z,165
2024-03-14T14:05:00.134Z,202.5
2024-03-14T14:10:00.113Z,190
2024-03-14T14:15:00.165Z,175
2024-03-14T14:20:00.160Z,172.5
2024-03-14T14:25:00.133Z,160
2024-03-14T14:30:00.173Z,145
2024-03-14T14:35:00.150Z,167.5
2024-03-14T14:40:00.193Z,200
2024-03-14T14:45:00.182Z,155
2024-03-14T14:50:00.113Z,110
2024-03-14T14:55:00.143Z,162.5
2024-03-14T15:00:00.143Z,165
2024-03-14T15:05:00.177Z,155
2024-03-14T15:10:00.378Z,185
2024-03-14T15:15:00.260Z,162.5
2024-03-14T15:20:00.150Z,180
2024-03-14T15:25:00.190Z,180
2024-03-14T15:30:00.194Z,180
2024-03-14T15:35:00.133Z,162.5
2024-03-14T15:40:00.161Z,115
2024-03-14T15:45:00.145Z,145
2024-03-14T15:50:00.157Z,140
2024-03-14T15:55:00.120Z,195
2024-03-14T16:00:00.175Z,170
2024-03-14T16:05:00.192Z,155
2024-03-14T16:10:00.292Z,155
2024-03-14T16:15:00.238Z,145
2024-03-14T16:20:00.361Z,157.5
2024-03-14T16:25:00.133Z,187.5
2024-03-14T16:30:00.159Z,190
2024-03-14T16:35:00.151Z,197.5
2024-03-14T16:40:00.183Z,167.5
2024-03-14T16:45:00.130Z,170
2024-03-14T16:50:00.153Z,160
2024-03-14T16:55:00.128Z,160
2024-03-14T17:00:00.144Z,157.5
2024-03-14T17:05:00.150Z,155
2024-03-14T17:10:00.129Z,165
2024-03-14T17:15:00.151Z,172.5
2024-03-14T17:20:00.149Z,175
2024-03-14T17:25:00.135Z,175
2024-03-14T17:30:00.147Z,175
2024-03-14T17:35:00.169Z,180
2024-03-14T17:40:00.206Z,212.5
2024-03-14T17:45:00.260Z,215
2024-03-14T17:50:00.205Z,230
2024-03-14T17:55:00.116Z,225
2024-03-14T18:00:00.207Z,212.5
2024-03-14T18:05:00.156Z,210
2024-03-14T18:10:00.094Z,220
2024-03-14T18:15:00.165Z,202.5
2024-03-14T18:20:00.194Z,190
2024-03-14T18:25:00.153Z,190
2024-03-14T18:30:00.272Z,207.5
2024-03-14T18:35:00.181Z,215
2024-03-14T18:40:00.137Z,220
2024-03-14T18:45:00.243Z,220
2024-03-14T18:50:00.165Z,217.5
2024-03-14T18:55:00.572Z,220
2024-03-14T19:00:00.286Z,225
2024-03-14T19:05:00.229Z,217.5
2024-03-14T19:10:00.187Z,215
2024-03-14T19:15:00.155Z,212.5
2024-03-14T19:20:00.163Z,217.5
2024-03-14T19:25:00.152Z,217.5
2024-03-14T19:30:00.545Z,217.5
2024-03-14T19:35:00.121Z,217.5
2024-03-14T19:40:00.116Z,215
2024-03-14T19:45:00.171Z,220
2024-03-14T19:50:00.193Z,217.5
2024-03-14T19:55:00.142Z,210
2024-03-14T20:00:00.201Z,242.5
2024-03-14T20:05:00.183Z,305
2024-03-14T20:10:00.129Z,297.5
2024-03-14T20:15:00.227Z,295
2024-03-14T20:20:00.196Z,295
2024-03-14T20:25:00.315Z,295
2024-03-14T20:30:00.310Z,295
2024-03-14T20:35:00.206Z,305
2024-03-14T20:40:01.184Z,300
2024-03-14T20:45:00.158Z,305
2024-03-14T20:50:00.305Z,297.5
2024-03-14T20:55:00.134Z,305
2024-03-14T21:00:00.206Z,300
2024-03-14T21:05:00.164Z,297.5
2024-03-14T21:10:00.141Z,305
2024-03-14T21:15:00.380Z,290
2024-03-14T21:20:00.204Z,297.5
2024-03-14T21:25:00.292Z,300
2024-03-14T21:30:00.259Z,295
2024-03-14T21:35:00.266Z,305
2024-03-14T21:40:00.208Z,305
2024-03-14T21:45:00.256Z,297.5
2024-03-14T21:50:00.167Z,295
2024-03-14T21:55:00.156Z,297.5
2024-03-14T22:00:00.189Z,300
2024-03-14T22:05:00.200Z,290
2024-03-14T22:10:00.145Z,295
2024-03-14T22:15:00.701Z,285
2024-03-14T22:20:00.355Z,250
2024-03-14T22:25:00.178Z,230
2024-03-14T22:30:00.287Z,235
2024-03-14T22:35:00.144Z,230
2024-03-14T22:40:00.206Z,220
2024-03-14T22:45:00.136Z,230
2024-03-14T22:50:00.147Z,235
2024-03-14T22:55:00.132Z,250
2024-03-14T23:00:00.153Z,227.5
2024-03-14T23:05:00.182Z,217.5
2024-03-14T23:10:00.142Z,225
2024-03-14T23:15:00.098Z,230
2024-03-14T23:20:00.189Z,235
2024-03-14T23:25:00.168Z,252.5
2024-03-14T23:30:00.144Z,250
2024-03-14T23:35:00.127Z,247.5
2024-03-14T23:40:00.117Z,245
2024-03-14T23:45:00.148Z,237.5
2024-03-14T23:50:00.178Z,240
2024-03-14T23:55:00.097Z,237.5
